Time;durP1;ratioP1;P1;durP2;ratioP2;P2;SDS_P1;SDS_P2;PMS_P1;PMS_P2;Temp;Humidity;BMP_temperature;BMP_pressure;BME280_temperature;BME280_humidity;BME280_pressure;Samples;Min_cycle;Max_cycle;Signal;HPM_P1;HPM_P2
2024/02/10 00:00:42;;;;;;;14.45;6.40;;;9.40;99.90;;;;;;5073177;28;20127;-47
2024/02/10 00:03:09;;;;;;;9.65;6.07;;;9.30;99.90;;;;;;5066910;28;20612;-49
2024/02/10 00:05:35;;;;;;;13.18;7.00;;;9.30;99.90;;;;;;5075401;28;20898;-49
2024/02/10 00:08:02;;;;;;;13.25;7.32;;;9.30;99.90;;;;;;5082230;28;20119;-48
2024/02/10 00:10:29;;;;;;;19.00;6.88;;;9.20;99.90;;;;;;5079122;28;20028;-49
2024/02/10 00:12:57;;;;;;;10.35;6.20;;;9.10;99.90;;;;;;5076327;28;20024;-49
2024/02/10 00:15:23;;;;;;;15.85;6.82;;;9.10;99.90;;;;;;5067423;28;20062;-47
2024/02/10 00:17:49;;;;;;;14.98;7.25;;;9.00;99.90;;;;;;5076973;28;20073;-46
2024/02/10 00:20:15;;;;;;;13.48;7.03;;;9.00;99.90;;;;;;5068932;28;20045;-47
2024/02/10 00:22:47;;;;;;;13.25;6.82;;;8.90;99.90;;;;;;5072485;28;20025;-49
2024/02/10 00:25:14;;;;;;;10.35;6.93;;;8.90;99.90;;;;;;5075107;28;20086;-46
2024/02/10 00:27:40;;;;;;;12.68;6.18;;;8.80;99.90;;;;;;5076408;28;20487;-46
2024/02/10 00:30:07;;;;;;;9.85;5.95;;;8.80;99.90;;;;;;5082421;28;20073;-47
2024/02/10 00:32:33;;;;;;;11.60;7.00;;;8.70;99.90;;;;;;5076599;28;20048;-47
2024/02/10 00:34:59;;;;;;;12.48;6.43;;;8.70;99.90;;;;;;5070920;28;20028;-47
2024/02/10 00:37:24;;;;;;;10.35;5.60;;;8.60;99.90;;;;;;5076753;28;20028;-49
2024/02/10 00:39:50;;;;;;;9.55;5.68;;;8.60;99.90;;;;;;5080349;28;20040;-47
2024/02/10 00:42:17;;;;;;;10.40;5.63;;;8.50;99.90;;;;;;5083444;28;20081;-49
2024/02/10 00:44:45;;;;;;;8.95;5.47;;;8.50;99.90;;;;;;5078919;28;20037;-49
2024/02/10 00:47:12;;;;;;;7.78;5.57;;;8.50;99.90;;;;;;5078174;28;20027;-50
2024/02/10 00:49:39;;;;;;;8.35;5.15;;;8.40;99.90;;;;;;5074548;28;20024;-47
2024/02/10 00:52:18;;;;;;;9.10;6.15;;;8.40;99.90;;;;;;5081389;28;20048;-47
2024/02/10 00:54:45;;;;;;;8.02;5.63;;;8.40;99.90;;;;;;5078812;28;20024;-50
2024/02/10 00:57:11;;;;;;;10.55;5.93;;;8.30;99.90;;;;;;5078024;28;20227;-49
2024/02/10 00:59:44;;;;;;;10.95;7.10;;;8.30;99.90;;;;;;5082566;28;20028;-47
2024/02/10 01:02:11;;;;;;;13.05;6.85;;;8.30;99.90;;;;;;5072759;28;20497;-49
2024/02/10 01:04:38;;;;;;;10.70;6.03;;;8.20;99.90;;;;;;5075080;28;20495;-48
2024/02/10 01:07:05;;;;;;;8.43;6.15;;;8.20;99.90;;;;;;5075396;28;20081;-48
2024/02/10 01:09:31;;;;;;;12.77;7.03;;;8.20;99.90;;;;;;5075242;28;20035;-49
2024/02/10 01:11:57;;;;;;;12.10;7.00;;;8.10;99.90;;;;;;5075231;28;20220;-47
2024/02/10 01:14:28;;;;;;;15.27;7.38;;;8.10;99.90;;;;;;5074870;28;20048;-46
2024/02/10 01:16:53;;;;;;;11.20;6.65;;;8.10;99.90;;;;;;5070344;28;20020;-47
2024/02/10 01:19:20;;;;;;;12.70;7.38;;;8.10;99.90;;;;;;5080010;28;20040;-46
2024/02/10 01:21:46;;;;;;;13.95;6.53;;;8.10;99.90;;;;;;5074970;28;20490;-48
2024/02/10 01:24:12;;;;;;;10.45;7.68;;;8.10;99.90;;;;;;5069979;28;20044;-50
2024/02/10 01:26:40;;;;;;;8.93;7.05;;;8.10;99.90;;;;;;5081238;28;20028;-48
2024/02/10 01:29:08;;;;;;;11.73;6.70;;;8.10;99.90;;;;;;5072665;28;20031;-46
2024/02/10 01:31:34;;;;;;;11.88;7.88;;;8.10;99.90;;;;;;5080989;28;20075;-50
2024/02/10 01:34:00;;;;;;;10.50;6.82;;;8.10;99.90;;;;;;5082674;28;20512;-49
2024/02/10 01:36:26;;;;;;;11.50;7.38;;;8.10;99.90;;;;;;5070869;28;20033;-47
2024/02/10 01:38:51;;;;;;;13.93;8.02;;;8.10;99.90;;;;;;5069743;28;20350;-46
2024/02/10 01:41:17;;;;;;;11.20;7.70;;;8.00;99.90;;;;;;5074627;28;20032;-47
2024/02/10 01:43:44;;;;;;;11.90;7.15;;;8.10;99.90;;;;;;5076277;28;20028;-48
2024/02/10 01:46:17;;;;;;;10.00;7.35;;;8.00;99.90;;;;;;5071820;28;20024;-50
2024/02/10 01:48:43;;;;;;;10.52;7.63;;;8.00;99.90;;;;;;5070480;28;20061;-47
2024/02/10 01:51:14;;;;;;;12.35;7.88;;;8.00;99.90;;;;;;5075094;28;20507;-47
2024/02/10 01:53:40;;;;;;;13.30;7.97;;;8.00;99.90;;;;;;5075341;28;20056;-47
2024/02/10 01:56:11;;;;;;;11.52;7.55;;;8.00;99.90;;;;;;5071933;28;20074;-46
2024/02/10 01:58:39;;;;;;;12.80;8.35;;;8.00;99.90;;;;;;5075293;28;20021;-48
2024/02/10 02:01:05;;;;;;;14.48;7.53;;;8.00;99.90;;;;;;5076970;28;20088;-48
2024/02/10 02:03:31;;;;;;;11.68;7.97;;;8.10;99.90;;;;;;5073362;28;20032;-46
2024/02/10 02:05:57;;;;;;;11.43;7.85;;;8.00;99.90;;;;;;5075057;28;20029;-48
2024/02/10 02:08:23;;;;;;;13.68;8.05;;;8.00;99.90;;;;;;5068714;28;20060;-50
2024/02/10 02:10:48;;;;;;;11.95;7.28;;;8.00;99.90;;;;;;5071160;28;20964;-46
2024/02/10 02:13:21;;;;;;;10.77;7.53;;;8.10;99.90;;;;;;5074367;28;20086;-47
2024/02/10 02:15:47;;;;;;;11.32;7.60;;;8.10;99.90;;;;;;5073114;28;20024;-47
2024/02/10 02:18:14;;;;;;;12.13;7.35;;;8.00;99.90;;;;;;5079362;28;20385;-46
2024/02/10 02:20:39;;;;;;;10.90;7.57;;;8.10;99.90;;;;;;5075084;28;20477;-47
2024/02/10 02:23:05;;;;;;;11.95;7.43;;;8.10;99.90;;;;;;5069655;28;20182;-49
2024/02/10 02:25:34;;;;;;;14.23;8.00;;;8.00;99.90;;;;;;5070067;28;20099;-47
2024/02/10 02:28:00;;;;;;;10.32;7.63;;;8.10;99.90;;;;;;5067430;28;20060;-50
2024/02/10 02:30:25;;;;;;;12.77;8.50;;;8.00;99.90;;;;;;5071301;28;20161;-46
2024/02/10 02:32:51;;;;;;;15.07;9.50;;;8.00;99.90;;;;;;5071988;28;20050;-49
2024/02/10 02:35:17;;;;;;;14.90;8.35;;;8.10;99.90;;;;;;5069761;28;20020;-47
2024/02/10 02:37:42;;;;;;;12.60;8.63;;;8.10;99.90;;;;;;5072349;28;20381;-49
2024/02/10 02:40:14;;;;;;;16.83;8.77;;;8.00;99.90;;;;;;5066589;28;20501;-50
2024/02/10 02:42:40;;;;;;;12.63;9.27;;;8.10;99.90;;;;;;5069067;28;20041;-46
2024/02/10 02:45:08;;;;;;;15.38;9.43;;;8.10;99.90;;;;;;5072412;28;20396;-47
2024/02/10 02:47:36;;;;;;;12.77;8.93;;;8.10;99.90;;;;;;5071786;28;20124;-46
2024/02/10 02:50:09;;;;;;;13.98;8.25;;;8.10;99.90;;;;;;5075541;28;20107;-47
2024/02/10 02:52:38;;;;;;;16.83;9.13;;;8.10;99.90;;;;;;5072261;28;20016;-47
2024/02/10 02:55:04;;;;;;;17.15;10.00;;;8.10;99.90;;;;;;5072206;28;20385;-50
2024/02/10 02:57:31;;;;;;;17.48;10.15;;;8.00;99.90;;;;;;5072273;28;20012;-47
2024/02/10 02:59:57;;;;;;;18.30;10.23;;;8.10;99.90;;;;;;5075652;28;20054;-49
2024/02/10 03:02:23;;;;;;;16.33;10.80;;;8.10;99.90;;;;;;5072893;28;20044;-48
2024/02/10 03:04:48;;;;;;;17.65;10.52;;;8.10;99.90;;;;;;5071654;28;20115;-47
2024/02/10 03:07:15;;;;;;;21.58;12.90;;;8.10;99.90;;;;;;5068614;28;20021;-46
2024/02/10 03:09:44;;;;;;;17.13;10.10;;;8.10;99.90;;;;;;5068737;28;20062;-47
2024/02/10 03:12:10;;;;;;;19.92;11.20;;;8.10;99.90;;;;;;5069638;28;20052;-50
2024/02/10 03:14:36;;;;;;;15.75;10.45;;;8.10;99.90;;;;;;5071282;28;20504;-50
2024/02/10 03:17:07;;;;;;;16.73;10.02;;;8.10;99.90;;;;;;5073495;28;20064;-47
2024/02/10 03:19:33;;;;;;;17.38;9.93;;;8.10;99.90;;;;;;5081167;28;20082;-49
2024/02/10 03:22:03;;;;;;;16.92;9.88;;;8.10;99.90;;;;;;5082267;28;20470;-49
2024/02/10 03:24:31;;;;;;;15.13;9.25;;;8.20;99.90;;;;;;5072217;28;20051;-47
2024/02/10 03:26:56;;;;;;;12.45;10.68;;;8.20;99.90;;;;;;5072395;28;20482;-46
2024/02/10 03:29:22;;;;;;;14.27;9.27;;;8.10;99.90;;;;;;5069892;28;20029;-48
2024/02/10 03:31:47;;;;;;;16.38;9.75;;;8.20;99.90;;;;;;5069872;28;20166;-47
2024/02/10 03:34:13;;;;;;;16.05;9.85;;;8.20;99.90;;;;;;5067225;28;20534;-51
2024/02/10 03:36:38;;;;;;;17.48;10.02;;;8.20;99.90;;;;;;5071755;28;20116;-48
2024/02/10 03:39:07;;;;;;;13.15;8.65;;;8.30;99.90;;;;;;5070703;28;20035;-46
2024/02/10 03:41:33;;;;;;;13.05;8.80;;;8.20;99.90;;;;;;5071211;28;20036;-47
2024/02/10 03:44:01;;;;;;;13.13;9.50;;;8.20;99.90;;;;;;5077535;28;20432;-48
2024/02/10 03:46:30;;;;;;;13.55;8.90;;;8.30;99.90;;;;;;5056907;28;20204;-50
2024/02/10 03:48:58;;;;;;;17.17;9.75;;;8.30;99.90;;;;;;5076795;28;20032;-50
2024/02/10 03:51:27;;;;;;;13.02;8.13;;;8.30;99.90;;;;;;5071255;28;20063;-48
2024/02/10 03:53:55;;;;;;;15.07;9.07;;;8.40;99.90;;;;;;5073045;28;20028;-48
2024/02/10 03:56:23;;;;;;;17.17;9.95;;;8.40;99.90;;;;;;5074945;28;20016;-48
2024/02/10 03:58:52;;;;;;;23.30;10.05;;;8.60;99.90;;;;;;5077997;28;20035;-48
2024/02/10 04:01:17;;;;;;;21.33;10.07;;;8.70;99.90;;;;;;5076311;28;20481;-50
2024/02/10 04:03:47;;;;;;;16.25;10.15;;;8.80;99.90;;;;;;5075226;28;20020;-49
2024/02/10 04:06:17;;;;;;;20.40;10.52;;;8.80;99.90;;;;;;5077040;28;20016;-46
2024/02/10 04:08:46;;;;;;;13.97;8.93;;;8.80;99.90;;;;;;5078693;28;20025;-49
2024/02/10 04:11:12;;;;;;;13.48;8.68;;;8.80;99.90;;;;;;5079765;28;20304;-47
2024/02/10 04:13:41;;;;;;;14.52;8.77;;;8.80;99.90;;;;;;5077996;28;20071;-47
2024/02/10 04:16:10;;;;;;;14.23;7.72;;;8.80;99.90;;;;;;5075235;28;20012;-48
2024/02/10 04:18:36;;;;;;;15.98;8.98;;;8.90;99.90;;;;;;5074358;28;20028;-50
2024/02/10 04:21:04;;;;;;;12.25;7.88;;;8.90;99.90;;;;;;5077364;28;20024;-46
2024/02/10 04:23:31;;;;;;;13.02;6.95;;;8.90;99.90;;;;;;5077252;28;20074;-47
2024/02/10 04:25:57;;;;;;;14.80;7.65;;;9.00;99.90;;;;;;5077052;28;20401;-47
2024/02/10 04:28:23;;;;;;;8.82;6.70;;;9.00;99.90;;;;;;5072814;28;20027;-50
2024/02/10 04:30:52;;;;;;;12.32;6.72;;;9.00;99.90;;;;;;5073870;28;20504;-48
2024/02/10 04:33:22;;;;;;;9.77;6.70;;;9.00;99.90;;;;;;5076348;28;20035;-46
2024/02/10 04:35:48;;;;;;;12.32;6.35;;;9.00;99.90;;;;;;5076811;28;20025;-48
2024/02/10 04:38:14;;;;;;;10.57;6.38;;;9.00;99.90;;;;;;5073639;28;20324;-46
2024/02/10 04:40:40;;;;;;;13.20;8.10;;;9.10;99.90;;;;;;5073515;28;20054;-48
2024/02/10 04:43:06;;;;;;;13.60;7.07;;;9.10;99.90;;;;;;5076289;28;20528;-50
2024/02/10 04:45:33;;;;;;;10.93;6.65;;;9.10;99.90;;;;;;5076386;28;20467;-47
2024/02/10 04:48:04;;;;;;;14.15;8.05;;;9.10;99.90;;;;;;5075793;28;20024;-47
2024/02/10 04:50:30;;;;;;;10.65;7.25;;;9.10;99.90;;;;;;5068992;28;20032;-48
2024/02/10 04:52:58;;;;;;;11.73;6.75;;;9.20;99.90;;;;;;5072174;28;20021;-49
2024/02/10 04:55:25;;;;;;;10.10;6.78;;;9.20;99.90;;;;;;5076803;28;20055;-47
2024/02/10 04:57:51;;;;;;;11.25;6.20;;;9.20;99.90;;;;;;5077561;28;20021;-47
2024/02/10 05:00:19;;;;;;;9.38;5.90;;;9.20;99.90;;;;;;5072194;28;20475;-47
2024/02/10 05:02:45;;;;;;;8.65;5.70;;;9.20;99.90;;;;;;5073300;28;20016;-46
2024/02/10 05:05:18;;;;;;;8.30;5.78;;;9.10;99.90;;;;;;5073391;28;20024;-46
2024/02/10 05:07:54;;;;;;;8.13;5.50;;;9.10;99.90;;;;;;5072995;28;20031;-47
2024/02/10 05:10:20;;;;;;;6.82;5.60;;;9.10;99.90;;;;;;5072939;28;20369;-47
2024/02/10 05:12:46;;;;;;;5.82;4.72;;;9.00;99.90;;;;;;5072888;28;20071;-46
2024/02/10 05:15:15;;;;;;;8.05;5.20;;;9.00;99.90;;;;;;5074806;28;20012;-47
2024/02/10 05:17:41;;;;;;;7.68;6.22;;;8.90;99.90;;;;;;5072808;28;20036;-46
2024/02/10 05:20:13;;;;;;;6.38;5.45;;;8.80;99.90;;;;;;5072305;28;20095;-48
2024/02/10 05:22:42;;;;;;;7.18;5.40;;;8.80;99.90;;;;;;5070004;28;20061;-48
2024/02/10 05:25:10;;;;;;;6.32;5.55;;;8.80;99.90;;;;;;5071743;28;20029;-47
2024/02/10 05:27:36;;;;;;;6.38;5.00;;;8.80;99.90;;;;;;5069976;28;20093;-48
2024/02/10 05:30:02;;;;;;;6.85;5.30;;;8.80;99.90;;;;;;5074160;28;20464;-46
2024/02/10 05:32:28;;;;;;;5.10;4.28;;;8.70;99.90;;;;;;5069785;28;20401;-46
2024/02/10 05:34:53;;;;;;;7.03;5.40;;;8.70;99.90;;;;;;5069293;28;20307;-46
2024/02/10 05:37:19;;;;;;;5.72;4.63;;;8.60;99.90;;;;;;5073088;28;20040;-47
2024/02/10 05:39:45;;;;;;;9.35;5.90;;;8.60;99.90;;;;;;5074303;28;20036;-47
2024/02/10 05:42:10;;;;;;;6.05;5.25;;;8.60;99.90;;;;;;5069520;28;20051;-47
2024/02/10 05:44:36;;;;;;;6.60;5.00;;;8.60;99.90;;;;;;5067863;28;20106;-47
2024/02/10 05:47:02;;;;;;;6.05;5.20;;;8.50;99.90;;;;;;5072320;28;20024;-46
2024/02/10 05:49:28;;;;;;;8.32;5.93;;;8.50;99.90;;;;;;5071117;28;20028;-46
2024/02/10 05:51:53;;;;;;;6.15;4.57;;;8.50;99.90;;;;;;5071605;28;20028;-47
2024/02/10 05:54:19;;;;;;;6.65;5.40;;;8.50;99.90;;;;;;5071398;28;20139;-48
2024/02/10 05:56:45;;;;;;;6.90;5.00;;;8.50;99.90;;;;;;5069747;28;20035;-46
2024/02/10 05:59:12;;;;;;;7.75;5.50;;;8.50;99.90;;;;;;5075349;28;20473;-46
2024/02/10 06:01:37;;;;;;;6.65;5.43;;;8.40;99.90;;;;;;5071268;28;20448;-49
2024/02/10 06:04:08;;;;;;;5.97;5.10;;;8.40;99.90;;;;;;5074912;28;20025;-47
2024/02/10 06:06:40;;;;;;;5.07;4.55;;;8.40;99.90;;;;;;5069833;28;20029;-46
2024/02/10 06:09:07;;;;;;;7.00;4.85;;;8.40;99.90;;;;;;5073003;28;20028;-49
2024/02/10 06:11:33;;;;;;;5.93;5.05;;;8.40;99.90;;;;;;5069575;28;20081;-47
2024/02/10 06:13:59;;;;;;;6.38;5.68;;;8.40;99.90;;;;;;5072022;28;20025;-47
2024/02/10 06:16:24;;;;;;;8.65;6.68;;;8.40;99.90;;;;;;5071151;28;20328;-47
2024/02/10 06:18:50;;;;;;;12.95;7.82;;;8.50;99.90;;;;;;5071039;28;20051;-46
2024/02/10 06:21:16;;;;;;;10.85;7.93;;;8.50;99.90;;;;;;5071768;28;20035;-46
2024/02/10 06:23:42;;;;;;;12.15;8.20;;;8.50;99.90;;;;;;5072063;28;20020;-50
2024/02/10 06:26:10;;;;;;;10.52;6.90;;;8.50;99.90;;;;;;5069016;28;20431;-48
2024/02/10 06:28:39;;;;;;;9.93;7.55;;;8.50;99.90;;;;;;5072570;28;20021;-47
2024/02/10 06:31:05;;;;;;;15.48;11.10;;;8.50;99.90;;;;;;5069887;28;20066;-50
2024/02/10 06:33:30;;;;;;;13.75;9.55;;;8.60;99.90;;;;;;5068395;28;20016;-48
2024/02/10 06:36:00;;;;;;;15.90;11.15;;;8.60;99.90;;;;;;5073171;28;20111;-48
2024/02/10 06:38:32;;;;;;;13.13;9.60;;;8.60;99.90;;;;;;5071892;28;20096;-49
2024/02/10 06:41:02;;;;;;;19.27;12.88;;;8.70;99.90;;;;;;5070085;28;20566;-51
2024/02/10 06:43:28;;;;;;;14.13;10.93;;;8.70;99.90;;;;;;5068182;28;20049;-48
2024/02/10 06:46:00;;;;;;;14.40;10.15;;;8.70;99.90;;;;;;5069970;28;20059;-46
2024/02/10 06:48:26;;;;;;;12.85;8.52;;;8.70;99.90;;;;;;5070643;28;20021;-46
2024/02/10 06:50:54;;;;;;;10.65;8.07;;;8.70;99.90;;;;;;5068526;28;20020;-46
2024/02/10 06:53:20;;;;;;;13.23;8.63;;;8.70;99.90;;;;;;5068952;28;20013;-47
2024/02/10 06:55:45;;;;;;;13.20;8.40;;;8.80;99.90;;;;;;5068339;28;20043;-46
2024/02/10 06:58:11;;;;;;;10.00;7.43;;;8.80;99.90;;;;;;5071137;28;20505;-48
2024/02/10 07:00:40;;;;;;;11.88;7.43;;;8.80;99.90;;;;;;5071568;28;20059;-46
2024/02/10 07:03:06;;;;;;;9.15;6.50;;;8.80;99.90;;;;;;5070359;28;20027;-47
2024/02/10 07:05:37;;;;;;;9.82;7.18;;;8.80;99.90;;;;;;5069483;28;20024;-46
2024/02/10 07:08:05;;;;;;;10.65;6.40;;;8.80;99.90;;;;;;5072054;28;20031;-46
2024/02/10 07:10:31;;;;;;;9.73;6.97;;;8.80;99.90;;;;;;5069044;28;20385;-46
2024/02/10 07:12:57;;;;;;;13.55;8.07;;;8.80;99.90;;;;;;5069108;28;20028;-47
2024/02/10 07:15:24;;;;;;;11.65;8.13;;;8.80;99.90;;;;;;5069282;28;20028;-47
2024/02/10 07:17:53;;;;;;;12.13;8.23;;;8.80;99.90;;;;;;5069278;28;20013;-46
2024/02/10 07:20:20;;;;;;;13.35;8.80;;;8.80;99.90;;;;;;5066608;28;20043;-46
2024/02/10 07:22:58;;;;;;;15.52;9.65;;;8.90;99.90;;;;;;5070504;28;20474;-46
2024/02/10 07:25:32;;;;;;;15.00;9.27;;;8.90;99.90;;;;;;5067804;28;20039;-46
2024/02/10 07:28:04;;;;;;;15.07;10.55;;;8.90;99.90;;;;;;5068756;28;20036;-46
2024/02/10 07:30:33;;;;;;;12.55;8.70;;;8.90;99.90;;;;;;5061119;28;20020;-46
2024/02/10 07:33:08;;;;;;;12.05;7.93;;;8.90;99.90;;;;;;5069403;28;20104;-48
2024/02/10 07:35:34;;;;;;;12.23;8.30;;;8.90;99.90;;;;;;5066066;28;20441;-50
2024/02/10 07:38:02;;;;;;;9.18;6.80;;;8.90;99.90;;;;;;5068873;28;20098;-46
2024/02/10 07:40:27;;;;;;;10.15;7.53;;;8.80;99.90;;;;;;5061798;28;20357;-46
2024/02/10 07:42:53;;;;;;;9.35;7.20;;;8.90;99.90;;;;;;5069137;28;20119;-48
2024/02/10 07:45:19;;;;;;;11.00;7.93;;;8.90;99.90;;;;;;5067059;28;20478;-47
2024/02/10 07:47:46;;;;;;;13.50;8.32;;;8.90;99.90;;;;;;5068634;28;20406;-47
2024/02/10 07:50:13;;;;;;;10.82;7.57;;;8.90;99.90;;;;;;5067602;28;20040;-48
2024/02/10 07:52:40;;;;;;;9.73;7.15;;;9.00;99.90;;;;;;5068575;28;20478;-46
2024/02/10 07:55:12;;;;;;;8.75;7.10;;;9.00;99.90;;;;;;5066183;28;20478;-46
2024/02/10 07:57:38;;;;;;;9.63;7.10;;;9.00;99.90;;;;;;5068466;28;20407;-46
2024/02/10 08:00:09;;;;;;;9.07;7.60;;;9.10;99.90;;;;;;5068821;28;20025;-48
2024/02/10 08:02:35;;;;;;;13.50;9.10;;;9.10;99.90;;;;;;5068036;28;20405;-48
2024/02/10 08:05:01;;;;;;;10.93;7.90;;;9.10;99.90;;;;;;5070575;28;20028;-46
2024/02/10 08:07:30;;;;;;;11.65;7.82;;;9.20;99.90;;;;;;5060975;28;20348;-47
2024/02/10 08:10:00;;;;;;;9.30;7.85;;;9.20;99.90;;;;;;5067384;28;20044;-47
2024/02/10 08:12:26;;;;;;;9.20;7.17;;;9.30;99.90;;;;;;5068069;28;20019;-48
2024/02/10 08:14:54;;;;;;;10.60;6.38;;;9.30;99.90;;;;;;5067452;28;20031;-49
2024/02/10 08:17:21;;;;;;;8.10;6.20;;;9.40;99.90;;;;;;5067181;28;20074;-50
2024/02/10 08:19:51;;;;;;;7.97;6.50;;;9.50;99.90;;;;;;5067256;28;20024;-48
2024/02/10 08:22:18;;;;;;;12.77;7.45;;;9.50;99.90;;;;;;5065738;28;20024;-48
2024/02/10 08:24:45;;;;;;;8.68;6.63;;;9.60;99.90;;;;;;5065532;28;20021;-48
2024/02/10 08:27:15;;;;;;;10.27;7.30;;;9.60;99.90;;;;;;5065669;28;20094;-49
2024/02/10 08:29:42;;;;;;;8.93;6.85;;;9.70;99.90;;;;;;5061445;28;20115;-51
2024/02/10 08:32:12;;;;;;;9.23;6.97;;;9.80;99.90;;;;;;5065960;28;20020;-49
2024/02/10 08:34:38;;;;;;;8.65;6.15;;;9.80;99.90;;;;;;5065961;28;20016;-47
2024/02/10 08:37:04;;;;;;;12.82;8.48;;;9.90;99.90;;;;;;5067127;28;20013;-52
2024/02/10 08:39:32;;;;;;;12.27;8.48;;;9.90;99.90;;;;;;5065796;28;20564;-49
2024/02/10 08:42:00;;;;;;;12.05;8.07;;;10.00;99.90;;;;;;5066514;28;20032;-49
2024/02/10 08:44:27;;;;;;;10.70;7.45;;;10.00;99.90;;;;;;5066416;28;20047;-48
2024/02/10 08:46:53;;;;;;;9.20;6.80;;;10.10;99.90;;;;;;5070295;28;20031;-47
2024/02/10 08:49:18;;;;;;;11.05;7.32;;;10.10;99.90;;;;;;5070033;28;20100;-49
2024/02/10 08:51:54;;;;;;;10.20;7.07;;;10.20;99.90;;;;;;5070591;28;20013;-47
2024/02/10 08:54:19;;;;;;;9.32;7.13;;;10.20;99.90;;;;;;5068909;28;20390;-48
2024/02/10 08:56:45;;;;;;;11.68;7.53;;;10.30;99.90;;;;;;5068784;28;20024;-48
2024/02/10 08:59:12;;;;;;;9.68;7.18;;;10.30;99.90;;;;;;5068779;28;20100;-47
2024/02/10 09:01:41;;;;;;;8.13;6.40;;;10.30;99.90;;;;;;5070566;28;20024;-49
2024/02/10 09:04:07;;;;;;;11.45;6.68;;;10.40;99.90;;;;;;5069975;28;20020;-48
2024/02/10 09:06:32;;;;;;;9.15;6.68;;;10.40;99.90;;;;;;5070594;28;20499;-48
2024/02/10 09:08:58;;;;;;;10.02;6.05;;;10.50;99.90;;;;;;5070769;28;20078;-47
2024/02/10 09:11:25;;;;;;;10.73;6.40;;;10.50;99.90;;;;;;5070431;28;20104;-46
2024/02/10 09:13:51;;;;;;;8.82;5.82;;;10.50;99.90;;;;;;5068676;28;20024;-47
2024/02/10 09:16:17;;;;;;;8.70;5.78;;;10.60;99.90;;;;;;5069850;28;20024;-47
2024/02/10 09:18:43;;;;;;;6.43;5.32;;;10.70;99.90;;;;;;5069748;28;20038;-51
2024/02/10 09:21:12;;;;;;;8.75;6.15;;;10.80;99.90;;;;;;5068279;28;20025;-49
2024/02/10 09:23:42;;;;;;;8.50;5.53;;;10.80;99.90;;;;;;5068004;28;20020;-47
2024/02/10 09:26:08;;;;;;;7.05;5.13;;;10.90;99.90;;;;;;5068785;28;20417;-46
2024/02/10 09:28:33;;;;;;;7.65;5.03;;;11.00;99.90;;;;;;5076957;28;20017;-48
2024/02/10 09:31:01;;;;;;;6.70;4.70;;;11.10;99.90;;;;;;5077786;28;20033;-50
2024/02/10 09:33:28;;;;;;;8.20;4.15;;;11.20;99.90;;;;;;5088946;28;20141;-47
2024/02/10 09:35:53;;;;;;;7.43;4.55;;;11.30;99.90;;;;;;5081377;28;20016;-51
2024/02/10 09:38:22;;;;;;;6.43;4.65;;;11.40;99.90;;;;;;5078547;28;20027;-47
2024/02/10 09:40:56;;;;;;;5.65;4.57;;;11.60;99.90;;;;;;5081984;28;20112;-48
2024/02/10 09:43:31;;;;;;;7.15;4.20;;;11.70;99.90;;;;;;5077920;28;20028;-50
2024/02/10 09:45:58;;;;;;;4.70;3.92;;;11.90;99.90;;;;;;5085274;28;20099;-48
2024/02/10 09:48:26;;;;;;;5.00;3.78;;;12.00;99.90;;;;;;5076977;28;20040;-46
2024/02/10 09:50:52;;;;;;;3.28;2.95;;;12.10;99.90;;;;;;5069167;28;20060;-47
2024/02/10 09:53:17;;;;;;;6.57;4.38;;;12.30;99.90;;;;;;5070787;28;20118;-47
2024/02/10 09:55:43;;;;;;;4.85;3.60;;;12.40;99.90;;;;;;5088778;28;20023;-51
2024/02/10 09:58:09;;;;;;;3.35;2.80;;;12.50;99.90;;;;;;5088494;28;20528;-48
2024/02/10 10:00:37;;;;;;;3.65;3.10;;;12.60;99.90;;;;;;5088703;28;20085;-47
2024/02/10 10:03:04;;;;;;;4.47;3.30;;;12.60;99.90;;;;;;5080646;28;20036;-50
2024/02/10 10:05:31;;;;;;;4.93;2.90;;;12.80;99.90;;;;;;5068940;28;20452;-46
2024/02/10 10:07:57;;;;;;;3.22;2.28;;;13.00;99.90;;;;;;5069757;28;20490;-47
2024/02/10 10:10:23;;;;;;;2.90;2.13;;;13.30;99.90;;;;;;5087215;28;20516;-47
2024/02/10 10:12:49;;;;;;;2.55;2.17;;;13.60;99.90;;;;;;5082151;28;20036;-49
2024/02/10 10:15:15;;;;;;;2.42;1.65;;;14.10;99.90;;;;;;5086027;28;20538;-47
2024/02/10 10:17:41;;;;;;;2.25;1.98;;;14.60;99.90;;;;;;5088154;28;20107;-51
2024/02/10 10:20:09;;;;;;;2.30;2.10;;;15.20;99.90;;;;;;5077847;28;20478;-49
2024/02/10 10:22:36;;;;;;;1.65;1.52;;;15.60;99.90;;;;;;5080832;28;20415;-47
2024/02/10 10:25:03;;;;;;;1.60;1.33;;;16.40;99.90;;;;;;5072089;28;20103;-50
2024/02/10 10:27:32;;;;;;;1.48;1.33;;;17.90;99.90;;;;;;5078747;28;20028;-47
2024/02/10 10:29:58;;;;;;;1.48;1.35;;;18.70;99.90;;;;;;5079908;28;20096;-50
2024/02/10 10:32:27;;;;;;;1.35;1.05;;;19.50;99.90;;;;;;5084544;28;20111;-48
2024/02/10 10:34:57;;;;;;;2.17;1.07;;;20.70;99.90;;;;;;5076259;28;20543;-50
2024/02/10 10:37:24;;;;;;;1.23;0.95;;;21.10;99.90;;;;;;5070887;28;20182;-49
2024/02/10 10:39:51;;;;;;;1.20;1.10;;;21.60;99.90;;;;;;5074041;28;20044;-51
2024/02/10 10:42:20;;;;;;;1.60;1.30;;;22.40;99.90;;;;;;5084964;28;20107;-48
2024/02/10 10:44:50;;;;;;;1.10;1.00;;;23.10;98.00;;;;;;5079444;28;20379;-48
2024/02/10 10:47:18;;;;;;;1.23;1.02;;;23.60;96.40;;;;;;5077605;28;20300;-48
2024/02/10 10:49:44;;;;;;;1.17;1.08;;;23.90;99.30;;;;;;5073408;28;20100;-51
2024/02/10 10:52:11;;;;;;;1.05;0.95;;;24.20;93.70;;;;;;5085787;28;20115;-48
2024/02/10 10:54:38;;;;;;;0.77;0.68;;;24.40;94.10;;;;;;5086362;28;20500;-48
2024/02/10 10:57:13;;;;;;;1.13;0.90;;;25.10;93.30;;;;;;5086101;28;20169;-50
2024/02/10 10:59:42;;;;;;;1.30;0.77;;;24.90;92.10;;;;;;5079762;28;20074;-51
2024/02/10 11:02:12;;;;;;;3.63;1.25;;;24.60;93.00;;;;;;5078213;28;20017;-49
2024/02/10 11:04:38;;;;;;;1.35;1.23;;;24.90;92.70;;;;;;5071911;28;20067;-48
2024/02/10 11:07:09;;;;;;;2.15;1.25;;;24.70;90.90;;;;;;5077074;28;20146;-50
2024/02/10 11:09:48;;;;;;;1.98;1.10;;;24.50;90.60;;;;;;5085345;28;20016;-50
2024/02/10 11:12:15;;;;;;;3.60;1.55;;;24.70;90.80;;;;;;5084397;28;20012;-50
2024/02/10 11:14:51;;;;;;;2.00;1.10;;;24.60;90.60;;;;;;5079440;28;20020;-47
2024/02/10 11:17:17;;;;;;;2.30;0.82;;;24.70;90.30;;;;;;5069001;28;20118;-51
2024/02/10 11:19:58;;;;;;;1.92;0.70;;;24.70;89.50;;;;;;5072004;28;20024;-47
2024/02/10 11:22:26;;;;;;;3.72;0.77;;;24.50;88.70;;;;;;5077053;28;20488;-47
2024/02/10 11:24:54;;;;;;;1.45;0.90;;;24.70;89.30;;;;;;5085376;28;20024;-50
2024/02/10 11:27:25;;;;;;;1.15;0.80;;;25.20;88.60;;;;;;5067279;28;20533;-50
2024/02/10 11:29:59;;;;;;;1.50;0.80;;;24.90;86.10;;;;;;5073199;28;20077;-47
2024/02/10 11:32:27;;;;;;;0.68;0.60;;;24.80;86.00;;;;;;5075557;28;20029;-47
2024/02/10 11:34:53;;;;;;;1.10;1.00;;;25.00;88.40;;;;;;5079312;28;20025;-47
2024/02/10 11:37:19;;;;;;;9.95;3.95;;;25.60;86.40;;;;;;5066886;28;20381;-49
2024/02/10 11:39:44;;;;;;;1.15;1.05;;;25.70;85.00;;;;;;5073795;28;20409;-49
2024/02/10 11:42:12;;;;;;;3.28;2.45;;;25.00;84.90;;;;;;5072940;28;20536;-48
2024/02/10 11:44:38;;;;;;;3.80;2.35;;;25.00;84.90;;;;;;5070766;28;20111;-47
2024/02/10 11:47:08;;;;;;;2.80;2.00;;;23.80;82.20;;;;;;5070926;28;20038;-48
2024/02/10 11:49:35;;;;;;;1.30;1.08;;;23.00;90.10;;;;;;5077137;28;20030;-48
2024/02/10 11:52:01;;;;;;;2.17;1.80;;;23.00;89.90;;;;;;5076825;28;20028;-49
2024/02/10 11:54:27;;;;;;;5.00;1.98;;;23.60;90.20;;;;;;5080655;28;20332;-47
2024/02/10 11:56:53;;;;;;;1.63;1.30;;;23.50;89.90;;;;;;5070562;28;20451;-52
2024/02/10 11:59:19;;;;;;;3.05;1.92;;;23.70;88.90;;;;;;5074568;28;20025;-50
2024/02/10 12:01:45;;;;;;;2.25;1.40;;;23.80;89.10;;;;;;5067154;28;20067;-47
2024/02/10 12:04:17;;;;;;;1.88;1.27;;;24.30;87.80;;;;;;5078707;28;20047;-48
2024/02/10 12:06:50;;;;;;;1.85;1.40;;;24.60;87.40;;;;;;5065873;28;20091;-49
2024/02/10 12:09:17;;;;;;;1.20;0.95;;;24.70;88.50;;;;;;5073726;28;20025;-47
2024/02/10 12:11:43;;;;;;;1.30;1.20;;;24.40;87.00;;;;;;5077968;28;20084;-48
2024/02/10 12:14:13;;;;;;;1.15;0.80;;;23.60;88.20;;;;;;5073499;28;20035;-47
2024/02/10 12:16:42;;;;;;;0.55;0.55;;;23.80;86.00;;;;;;5083724;28;20015;-49
2024/02/10 12:19:08;;;;;;;0.70;0.70;;;24.30;86.10;;;;;;5070924;28;20024;-49
2024/02/10 12:21:34;;;;;;;1.73;1.30;;;24.70;84.70;;;;;;5086801;28;20379;-47
2024/02/10 12:24:00;;;;;;;0.77;0.70;;;24.80;85.00;;;;;;5087455;28;20059;-48
2024/02/10 12:26:28;;;;;;;0.75;0.50;;;24.50;84.40;;;;;;5078070;28;20119;-50
2024/02/10 12:28:54;;;;;;;1.63;1.10;;;24.50;84.20;;;;;;5071383;28;20035;-48
2024/02/10 12:31:20;;;;;;;0.90;0.90;;;24.50;82.90;;;;;;5077516;28;20389;-49
2024/02/10 12:33:50;;;;;;;1.08;0.90;;;24.00;83.80;;;;;;5087134;28;20008;-49
2024/02/10 12:36:16;;;;;;;0.97;0.50;;;23.80;85.30;;;;;;5085434;28;20016;-48
2024/02/10 12:38:42;;;;;;;0.88;0.85;;;24.00;83.80;;;;;;5063379;28;20346;-47
2024/02/10 12:41:08;;;;;;;1.00;0.90;;;23.60;83.30;;;;;;5070693;28;20036;-50
2024/02/10 12:43:36;;;;;;;1.38;1.00;;;23.30;86.00;;;;;;5079151;28;20026;-47
2024/02/10 12:46:03;;;;;;;1.83;0.93;;;22.90;88.10;;;;;;5086796;28;20522;-48
2024/02/10 12:48:29;;;;;;;1.10;1.00;;;22.80;88.60;;;;;;5076901;28;20033;-50